Terminal Aerodrome Forecast
Issued by NWS Cleveland, OH

Home | Current Version | Previous Version | Graphics & Text | Print | Product List | Glossary On
Versions: 1 2 3 4 5 6 7 8 9 10 11 12 13 14 15 16 17 18 19 20 21 22 23 24 25 26
609
FTUS41 KCLE 281720
TAFCLE
TAF
KCLE 281720Z 2818/2924 20010KT P6SM BKN200
     FM291100 21012G20KT P6SM BKN050 OVC200
     FM291400 22020G30KT P6SM BKN050 OVC100 PROB30 2922/2924 3SM
      -TSRA BKN030CB=

USA.gov is the U.S. government's official web portal to all federal, state and local government web resources and services.